• Join FlightAware (Why Join?)
  • Login
  • US Flag GB Flag 
06:12 EDT


 

Airport Tracker/Info


-or-


 

Live Flight TrackerFlight Track Log ✈ N3794F ✈ 08-Aug-2014 ✈ KSGJ - KPIE

Flight Track Log - Related Links

Times and Time Zones

All times are in EDT time to prevent confusion due to time zone crossing. See the N3794F flight status page for this flight to view local times or setup timezone preferences in your user account.

Time Position Orientation Groundspeed Altitude Reporting Facility
EDT Latitude Longitude Course Direction KTS MPH feet Rate Location/Type
15:34 29.9522 -81.3294 221° Southwest 47 54 700  Level Jacksonville Center
15:35 29.9414 -81.3106 123° Southeast 50 58 1,300 480 Climbing Jacksonville Center
15:36 29.9308 -81.2964 131° Southeast 63 72 1,800 420 Climbing Jacksonville Center
15:37 29.9244 -81.2772 111° Southeast 70 81 2,200 420 Climbing Jacksonville Center
15:38 29.9097 -81.2703 158° South 64 74 2,700 480 Climbing Jacksonville Center
15:38 29.9075 -81.2681 139° Southeast 64 74 2,800 420 Climbing Jacksonville Center
15:39 29.8928 -81.2586 151° Southeast 66 76 3,300 420 Climbing Jacksonville Center
15:40 29.8295 -81.4705 221° Southwest  Level FlightAware Approximate
15:40 29.8761 -81.2517 160° South 58 67 3,700  Level Jacksonville Center
15:41 29.8572 -81.2472 168° South 65 75 4,100 120 Climbing Jacksonville Center
15:42 29.8319 -81.2406 167° South 93 107 4,000 -60 Descending Jacksonville Center
15:43 29.8047 -81.2361 172° South 101 116 4,000  Level Jacksonville Center
15:44 29.7756 -81.2294 169° South 98 113 4,000  Level Jacksonville Center
15:45 29.7461 -81.2228 169° South 99 114 4,000  Level Jacksonville Center
15:46 29.7231 -81.2161 166° South 100 115 4,000  Level Jacksonville Center
15:47 29.6939 -81.2069 165° South 101 116 4,000  Level Jacksonville Center
15:48 29.6644 -81.2003 169° South 99 114 4,000  Level Jacksonville Center
15:49 29.6311 -81.1939 171° South 100 115 4,000  Level Jacksonville Center
15:50 29.6081 -81.1894 170° South 101 116 4,000  Level Jacksonville Center
15:51 29.5828 -81.1803 162° South 100 115 4,000  Level Jacksonville Center
15:52 29.5578 -81.1736 167° South 99 114 4,000  Level Jacksonville Center
15:53 29.5283 -81.1669 169° South 98 113 4,000  Level Jacksonville Center
15:54 29.5011 -81.1628 172° South 99 114 4,000  Level Jacksonville Center
15:55 29.4781 -81.1583 170° South 101 116 4,000  Level Jacksonville Center
15:56 29.4467 -81.1492 166° South 100 115 4,000  Level Jacksonville Center
15:57 29.4194 -81.1425 168° South 105 121 4,000  Level Jacksonville Center
15:58 29.3903 -81.1361 169° South 103 119 4,000  Level Jacksonville Center
15:59 29.3631 -81.1317 172° South 102 117 4,000  Level Jacksonville Center
16:00 29.3317 -81.1250 170° South 102 117 4,000  Level Jacksonville Center
16:01 29.3067 -81.1350 199° South 93 107 4,000  Level Jacksonville Center
16:02 29.2858 -81.1497 212° Southwest 91 105 4,000  Level Jacksonville Center
16:03 29.2653 -81.1644 212° Southwest 95 109 4,000  Level Jacksonville Center
16:04 29.2425 -81.1792 209° Southwest 93 107 4,000  Level Jacksonville Center
16:06 29.2136 -81.1964 207° Southwest 94 108 4,000  Level Jacksonville Center
16:07 29.1886 -81.2108 207° Southwest 102 117 4,000  Level Jacksonville Center
16:08 29.1639 -81.2233 204° Southwest 99 114 4,000  Level Jacksonville Center
16:09 29.1369 -81.2403 209° Southwest 98 113 4,000  Level Jacksonville Center
16:10 29.1000 -81.2667 212° Southwest 97 112 4,000  Level Orlando TRACON
16:11 29.0667 -81.2833 204° Southwest 109 125 4,000  Level Orlando TRACON
16:12 29.0500 -81.3000 221° Southwest 102 117 4,000  Level Orlando TRACON
16:14 29.0167 -81.3167 204° Southwest 97 112 4,000  Level Orlando TRACON
16:15 29.0000 -81.3333 221° Southwest 104 120 4,000  Level Orlando TRACON
16:16 28.9667 -81.3500 204° Southwest 106 122 4,000  Level Orlando TRACON
16:17 28.9500 -81.3667 221° Southwest 97 112 4,000  Level Orlando TRACON
16:18 28.9333 -81.3833 221° Southwest 94 108 4,000  Level Orlando TRACON
16:19 28.9167 -81.4000 221° Southwest 93 107 4,000  Level Orlando TRACON
16:20 28.9000 -81.4333 240° Southwest 94 108 4,000  Level Orlando TRACON
16:21 28.8667 -81.4500 204° Southwest 96 110 4,000  Level Orlando TRACON
16:22 28.8500 -81.4667 221° Southwest 99 114 4,000  Level Orlando TRACON
16:23 28.8333 -81.5000 240° Southwest 103 119 4,000  Level Orlando TRACON
16:24 28.8167 -81.5167 221° Southwest 101 116 4,000  Level Orlando TRACON
16:25 28.8000 -81.5500 240° Southwest 99 114 4,000  Level Orlando TRACON
16:26 28.7833 -81.5667 221° Southwest 102 117 4,000  Level Orlando TRACON
16:27 28.7667 -81.6000 240° Southwest 104 120 4,000  Level Orlando TRACON
16:28 28.7500 -81.6167 221° Southwest 100 115 4,000  Level Orlando TRACON
16:29 28.7333 -81.6500 240° Southwest 100 115 4,000  Level Orlando TRACON
16:30 28.7167 -81.6667 221° Southwest 99 114 4,000  Level Orlando TRACON
16:31 28.6833 -81.6833 204° Southwest 104 120 4,000  Level Orlando TRACON
16:32 28.6667 -81.7167 240° Southwest 98 113 4,000  Level Orlando TRACON
16:33 28.6500 -81.7333 221° Southwest 98 113 4,000  Level Orlando TRACON
16:34 28.6333 -81.7667 240° Southwest 100 115 4,000  Level Orlando TRACON
16:35 28.6167 -81.7833 221° Southwest 98 113 4,000  Level Orlando TRACON
16:36 28.5833 -81.8167 221° Southwest 100 115 4,000  Level Tampa TRACON
16:37 28.5667 -81.8500 240° Southwest 98 113 4,000  Level Tampa TRACON
16:38 28.5500 -81.8667 221° Southwest 96 110 4,000  Level Tampa TRACON
16:39 28.5333 -81.8833 221° Southwest 98 113 4,000  Level Tampa TRACON
16:40 28.5167 -81.9167 240° Southwest 94 108 4,000  Level Tampa TRACON
16:41 28.5000 -81.9333 221° Southwest 89 102 4,000  Level Tampa TRACON
16:42 28.4833 -81.9500 221° Southwest 94 108 4,000  Level Tampa TRACON
16:43 28.4667 -81.9833 240° Southwest 95 109 4,000  Level Tampa TRACON
16:44 28.4500 -82.0000 221° Southwest 98 113 4,000  Level Tampa TRACON
16:45 28.4167 -82.0333 221° Southwest 100 115 4,000  Level Tampa TRACON
16:46 28.4000 -82.0500 221° Southwest 97 112 4,000  Level Tampa TRACON
16:47 28.3833 -82.0667 221° Southwest 97 112 4,000  Level Tampa TRACON
16:48 28.3500 -82.0833 204° Southwest 97 112 4,000  Level Tampa TRACON
16:49 28.3333 -82.1000 221° Southwest 98 113 4,000  Level Tampa TRACON
16:50 28.3167 -82.1333 240° Southwest 96 110 4,000  Level Tampa TRACON
16:51 28.3000 -82.1500 221° Southwest 97 112 4,000  Level Tampa TRACON
16:52 28.2667 -82.1667 204° Southwest 97 112 4,000  Level Tampa TRACON
16:53 28.2500 -82.1833 221° Southwest 99 114 4,000 -120 Level Tampa TRACON
16:54 28.2333 -82.2000 221° Southwest 99 114 3,800  Descending Tampa TRACON
16:55 28.2167 -82.2167 221° Southwest 97 112 4,000 60 Climbing Tampa TRACON
16:56 28.1833 -82.2333 204° Southwest 96 110 4,000  Level Tampa TRACON
16:57 28.1667 -82.2500 221° Southwest 96 110 4,000 -60 Level Tampa TRACON
16:58 28.1333 -82.2667 204° Southwest 98 113 3,900 -60 Descending Tampa TRACON
16:59 28.1167 -82.2667 180° South 96 110 3,900  Level Tampa TRACON
17:00 28.1000 -82.2833 221° Southwest 96 110 3,900  Level Tampa TRACON
17:01 28.0667 -82.3000 204° Southwest 96 110 3,900  Level Tampa TRACON
17:02 28.0500 -82.3167 221° Southwest 97 112 3,900  Level Tampa TRACON
17:03 28.0167 -82.3333 204° Southwest 98 113 3,900  Level Tampa TRACON
17:04 28.0000 -82.3500 221° Southwest 99 114 3,900  Level Tampa TRACON
17:05 27.9833 -82.3667 221° Southwest 96 110 3,900  Level Tampa TRACON
17:06 27.9667 -82.4000 240° Southwest 111 128 3,900  Level Tampa TRACON
17:07 27.9667 -82.4333 270° West 110 127 3,900  Level Tampa TRACON
17:08 27.9667 -82.4667 270° West 105 121 3,900  Level Tampa TRACON
17:09 27.9667 -82.5000 270° West 95 109 3,900  Level Tampa TRACON
17:10 27.9667 -82.5333 270° West 96 110 3,900  Level Tampa TRACON
17:11 27.9667 -82.5500 270° West 96 110 3,900  Level Tampa TRACON
17:12 27.9667 -82.6000 270° West 105 121 3,900  Level Tampa TRACON
17:13 27.9833 -82.6333 300° West 107 123 3,900  Level Tampa TRACON
17:14 27.9833 -82.6500 270° West 102 117 3,900  Level Tampa TRACON
17:15 27.9667 -82.6833 240° Southwest 106 122 3,900 -480 Level Tampa TRACON
17:16 27.9500 -82.7167 240° Southwest 119 137 3,000 -720 Descending Tampa TRACON
17:17 27.9167 -82.7167 180° South 111 128 2,400 -960 Descending Tampa TRACON
17:18 27.8833 -82.7167 180° South 117 135 1,100 -960 Descending Tampa TRACON
17:19 27.8833 -82.7000 90° East 84 97 500 -540 Descending Tampa TRACON
17:20 27.9000 -82.6833 41° Northeast 57 66 100 -420 Descending Tampa TRACON
17:22 27.9100 -82.6875 60° Northeast  Level Estimated
17:29 27.9100 -82.6875 60° Northeast  Level Estimated
17:30 27.9100 -82.6875 160° South  Level Estimated